Alsace — PB4786 — position and weather

sailwx.info

Track history (hours):
 
Tides and Currents Weather Stations Pressure Air Temp Water Temp Dewpoint Dewpoint Depression Visibility Wind Speed Wind Dir Waves Ship Positions

Alsace

Last reported at 2017-Jan-17 18:21 UTC. Time now 2017-Jan-18 04:14 UTC.
Position N 47°39' E 007°32'.

Length 178 m; draft 1.8 m.

Type: Ship. MMSI: 244660556.

Date/timePositionNaut miles runAvg speedWind from/ knotsBaromVisibWave heightAir tempDewpointWater temp
2017-Jan-17 18:21N 47°39' E 007°32'0 0.1
2017-Jan-17 17:33N 47°39' E 007°32'7 0.8
2017-Jan-17 09:33N 47°34' E 007°38'0 0.0
2017-Jan-17 08:33N 47°34' E 007°38'2 1.8
2017-Jan-17 07:33N 47°32' E 007°40'0 0.0
2017-Jan-17 06:33N 47°32' E 007°40'0 0.0
2017-Jan-17 05:33N 47°32' E 007°40'0 0.0
2017-Jan-17 04:33N 47°32' E 007°40'0 0.0
2017-Jan-17 03:33N 47°32' E 007°40'0 0.0
2017-Jan-17 02:33N 47°32' E 007°40'0 0.0
2017-Jan-17 01:33N 47°32' E 007°40'0 0.0
2017-Jan-17 00:33N 47°32' E 007°40'0 0.0
2017-Jan-16 23:33N 47°32' E 007°40'0 0.0
2017-Jan-16 22:33N 47°32' E 007°40'0 0.0
2017-Jan-16 21:34N 47°32' E 007°40'0 0.0
2017-Jan-16 20:33N 47°32' E 007°40'0 0.0
2017-Jan-16 19:33N 47°32' E 007°40'0 0.0
2017-Jan-16 18:33N 47°32' E 007°40'0 0.0
2017-Jan-16 17:33N 47°32' E 007°40'2 1.8
2017-Jan-16 16:33N 47°34' E 007°38'2 0.9
2017-Jan-16 14:11N 47°35' E 007°35'89 3.4
2017-Jan-15 12:27N 48°59' E 008°17'4 4.4
2017-Jan-15 11:33N 49°03' E 008°19'5 4.7
2017-Jan-15 10:34N 49°07' E 008°22'4 4.2
2017-Jan-15 09:33N 49°11' E 008°23'4 4.3
2017-Jan-15 08:33N 49°15' E 008°26'4 3.4
2017-Jan-15 07:27N 49°19' E 008°27'96 4.2
2017-Jan-14 08:25N 50°41' E 007°11'5 5.4
2017-Jan-14 07:33N 50°45' E 007°06'6 5.4
2017-Jan-14 06:30N 50°49' E 007°01'3 3.4
2017-Jan-14 05:33N 50°52' E 007°02'4 4.2
2017-Jan-14 04:31N 50°56' E 006°58'38 3.8
2017-Jan-13 18:28N 51°33' E 006°41'5 4.0
2017-Jan-13 17:18N 51°36' E 006°36'4 4.4
2017-Jan-13 16:28N 51°39' E 006°33'5 5.8
2017-Jan-13 15:34N 51°43' E 006°26'5 4.8
2017-Jan-13 14:33N 51°46' E 006°20'6 6.3
2017-Jan-13 13:33N 51°50' E 006°12'7 6.6
2017-Jan-13 12:33N 51°52' E 006°03'5 5.4
2017-Jan-13 11:33N 51°52' E 005°54'3 2.6
2017-Jan-13 10:33N 51°52' E 005°50'0 0.0
2017-Jan-13 09:33N 51°52' E 005°50'0 0.2
2017-Jan-13 08:33N 51°52' E 005°50'0 0.0
2017-Jan-13 07:32N 51°52' E 005°50'0 0.0
2017-Jan-13 06:33N 51°52' E 005°50'0 0.0
2017-Jan-13 05:33N 51°52' E 005°50'0 0.0
2017-Jan-13 04:32N 51°52' E 005°50'0 0.0
2017-Jan-13 03:33N 51°52' E 005°50'0 0.0
2017-Jan-13 02:31N 51°52' E 005°50'0 0.0
2017-Jan-13 01:33N 51°52' E 005°50'0 0.0
2017-Jan-13 00:33N 51°52' E 005°50'0 0.0
2017-Jan-12 23:33N 51°52' E 005°50'0 0.0
2017-Jan-12 22:33N 51°52' E 005°50'1 1.3
2017-Jan-12 21:33N 51°53' E 005°48'6 6.2
2017-Jan-12 20:32N 51°54' E 005°38'22 6.5
2017-Jan-12 17:10N 51°49' E 005°04'5 9.0
2017-Jan-12 16:34N 51°50' E 004°55'9 8.9
2017-Jan-12 15:33N 51°50' E 004°40'8 8.1
2017-Jan-12 14:33N 51°54' E 004°29'2 2.3
2017-Jan-12 13:33N 51°53' E 004°26'1 0.7
2017-Jan-12 12:33N 51°54' E 004°26'3 2.9
2017-Jan-12 11:33N 51°54' E 004°22'5 5.0
2017-Jan-12 10:33N 51°54' E 004°13'7 6.6
2017-Jan-12 09:34N 51°57' E 004°05'3 3.1
2017-Jan-12 08:34N 51°58' E 003°60'0 0.0
2017-Jan-12 07:33N 51°58' E 003°60'0 0.0
2017-Jan-12 06:33N 51°58' E 003°60'0 0.0
2017-Jan-12 05:33N 51°58' E 003°60'1 0.7
2017-Jan-12 04:34N 51°57' E 004°01'0 0.0
2017-Jan-12 03:33N 51°57' E 004°01'0 0.0
2017-Jan-12 02:33N 51°57' E 004°01'0 0.0
2017-Jan-12 01:33N 51°57' E 004°01'0 0.0
2017-Jan-12 00:34N 51°57' E 004°01'0 0.0
2017-Jan-11 23:33N 51°57' E 004°01'1 1.2
2017-Jan-11 22:33N 51°59' E 004°01'2 2.3
2017-Jan-11 21:33N 51°57' E 004°03'0 0.0
2017-Jan-11 20:33N 51°57' E 004°03'0 0.0
2017-Jan-11 19:33N 51°57' E 004°03'1 0.6
2017-Jan-11 18:33N 51°57' E 004°04'2 1.8
2017-Jan-11 17:33N 51°58' E 004°03'6 5.7
2017-Jan-11 16:33N 51°55' E 004°10'8 8.2
2017-Jan-11 15:33N 51°51' E 004°21'8 7.5
2017-Jan-11 14:33N 51°50' E 004°33'7 6.6
2017-Jan-11 13:33N 51°44' E 004°38'28 4.1
2017-Jan-11 06:33N 51°17' E 004°22'0 0.0
2017-Jan-11 05:33N 51°17' E 004°22'0 0.1
2017-Jan-11 04:33N 51°17' E 004°22'0 0.0
2017-Jan-11 03:33N 51°17' E 004°22'0 0.2
2017-Jan-11 02:33N 51°17' E 004°22'0 0.0
2017-Jan-11 01:33N 51°17' E 004°22'0 0.0
2017-Jan-11 00:33N 51°17' E 004°22'0 0.2
2017-Jan-10 23:33N 51°17' E 004°22'4 3.6
2017-Jan-10 22:32N 51°18' E 004°16'2 2.2
2017-Jan-10 21:33N 51°21' E 004°16'0 0.0
2017-Jan-10 20:33N 51°21' E 004°16'2 0.4
2017-Jan-10 16:16N 51°19' E 004°17'0 0.0
2017-Jan-10 15:33N 51°19' E 004°17'0 0.0
2017-Jan-10 14:33N 51°19' E 004°17'0 0.0
2017-Jan-10 13:32N 51°19' E 004°17'2 2.1
2017-Jan-10 12:31N 51°17' E 004°15'0 0.0
2017-Jan-10 11:33N 51°17' E 004°15'0 0.1
2017-Jan-10 10:33N 51°17' E 004°15'0 0.0
2017-Jan-10 09:33N 51°17' E 004°15'0 0.5
2017-Jan-10 08:33N 51°17' E 004°15'0 0.4
2017-Jan-10 07:33N 51°18' E 004°16'0 0.2
2017-Jan-10 06:33N 51°18' E 004°16'0 0.1
2017-Jan-10 05:33N 51°18' E 004°16'0 0.0
2017-Jan-10 04:33N 51°18' E 004°16'0 0.0
2017-Jan-10 03:33N 51°18' E 004°16'0 0.1
2017-Jan-10 02:33N 51°18' E 004°16'0 0.0
2017-Jan-10 01:33N 51°18' E 004°16'0 0.2
2017-Jan-10 00:31N 51°18' E 004°16'0 0.0
2017-Jan-09 23:33N 51°18' E 004°16'3 2.6
2017-Jan-09 22:33N 51°17' E 004°20'1 0.6
2017-Jan-09 21:33N 51°17' E 004°20'27 4.2
2017-Jan-09 15:17N 51°42' E 004°33'7 9.5
2017-Jan-09 14:33N 51°45' E 004°44'9 8.9
2017-Jan-09 13:33N 51°50' E 004°55'2 1.8
2017-Jan-09 12:33N 51°49' E 004°58'12 6.2
2017-Jan-09 10:33N 51°49' E 005°18'8 6.5
2017-Jan-09 09:19N 51°53' E 005°30'6 8.3
2017-Jan-09 08:33N 51°54' E 005°40'8 8.2
2017-Jan-09 07:33N 51°51' E 005°53'7 6.6
2017-Jan-09 06:34N 51°52' E 006°03'9 8.6
2017-Jan-09 05:33N 51°49' E 006°16'8 7.2
2017-Jan-09 04:26N 51°43' E 006°25'7 8.0
2017-Jan-09 03:33N 51°40' E 006°35'6 6.1
2017-Jan-09 02:31N 51°34' E 006°41'20 6.4
2017-Jan-08 23:24N 51°15' E 006°46'4 4.4
2017-Jan-08 22:33N 51°11' E 006°47'15 6.5
2017-Jan-08 20:12N 50°58' E 006°60'5 6.6
2017-Jan-08 19:29N 50°54' E 007°02'107 6.5
2017-Jan-08 03:04N 49°23' E 008°30'4 8.2
2017-Jan-08 02:33N 49°19' E 008°27'6 6.5
2017-Jan-08 01:33N 49°13' E 008°23'9 8.5
2017-Jan-08 00:33N 49°05' E 008°20'10 8.4
2017-Jan-07 23:25N 48°57' E 008°11'  
Track history (hours):
 
Tides and Currents Weather Stations Pressure Air Temp Water Temp Dewpoint Dewpoint Depression Visibility Wind Speed Wind Dir Waves Ship Positions

Alsace

Last reported at 2017-Jan-17 18:21 UTC. Time now 2017-Jan-18 04:14 UTC.
Position N 47°39' E 007°32'.

Length 178 m; draft 1.8 m.

Type: Ship. MMSI: 244660556.

Date/timePositionNaut miles runAvg speedWind from/ knotsBaromVisibWave heightAir tempDewpointWater temp
2017-Jan-17 18:21N 47°39' E 007°32'0 0.1
2017-Jan-17 17:33N 47°39' E 007°32'7 0.8
2017-Jan-17 09:33N 47°34' E 007°38'0 0.0
2017-Jan-17 08:33N 47°34' E 007°38'2 1.8
2017-Jan-17 07:33N 47°32' E 007°40'0 0.0
2017-Jan-17 06:33N 47°32' E 007°40'0 0.0
2017-Jan-17 05:33N 47°32' E 007°40'0 0.0
2017-Jan-17 04:33N 47°32' E 007°40'0 0.0
2017-Jan-17 03:33N 47°32' E 007°40'0 0.0
2017-Jan-17 02:33N 47°32' E 007°40'0 0.0
2017-Jan-17 01:33N 47°32' E 007°40'0 0.0
2017-Jan-17 00:33N 47°32' E 007°40'0 0.0
2017-Jan-16 23:33N 47°32' E 007°40'0 0.0
2017-Jan-16 22:33N 47°32' E 007°40'0 0.0
2017-Jan-16 21:34N 47°32' E 007°40'0 0.0
2017-Jan-16 20:33N 47°32' E 007°40'0 0.0
2017-Jan-16 19:33N 47°32' E 007°40'0 0.0
2017-Jan-16 18:33N 47°32' E 007°40'0 0.0
2017-Jan-16 17:33N 47°32' E 007°40'2 1.8
2017-Jan-16 16:33N 47°34' E 007°38'2 0.9
2017-Jan-16 14:11N 47°35' E 007°35'89 3.4
2017-Jan-15 12:27N 48°59' E 008°17'4 4.4
2017-Jan-15 11:33N 49°03' E 008°19'5 4.7
2017-Jan-15 10:34N 49°07' E 008°22'4 4.2
2017-Jan-15 09:33N 49°11' E 008°23'4 4.3
2017-Jan-15 08:33N 49°15' E 008°26'4 3.4
2017-Jan-15 07:27N 49°19' E 008°27'96 4.2
2017-Jan-14 08:25N 50°41' E 007°11'5 5.4
2017-Jan-14 07:33N 50°45' E 007°06'6 5.4
2017-Jan-14 06:30N 50°49' E 007°01'3 3.4
2017-Jan-14 05:33N 50°52' E 007°02'4 4.2
2017-Jan-14 04:31N 50°56' E 006°58'38 3.8
2017-Jan-13 18:28N 51°33' E 006°41'5 4.0
2017-Jan-13 17:18N 51°36' E 006°36'4 4.4
2017-Jan-13 16:28N 51°39' E 006°33'5 5.8
2017-Jan-13 15:34N 51°43' E 006°26'5 4.8
2017-Jan-13 14:33N 51°46' E 006°20'6 6.3
2017-Jan-13 13:33N 51°50' E 006°12'7 6.6
2017-Jan-13 12:33N 51°52' E 006°03'5 5.4
2017-Jan-13 11:33N 51°52' E 005°54'3 2.6
2017-Jan-13 10:33N 51°52' E 005°50'0 0.0
2017-Jan-13 09:33N 51°52' E 005°50'0 0.2
2017-Jan-13 08:33N 51°52' E 005°50'0 0.0
2017-Jan-13 07:32N 51°52' E 005°50'0 0.0
2017-Jan-13 06:33N 51°52' E 005°50'0 0.0
2017-Jan-13 05:33N 51°52' E 005°50'0 0.0
2017-Jan-13 04:32N 51°52' E 005°50'0 0.0
2017-Jan-13 03:33N 51°52' E 005°50'0 0.0
2017-Jan-13 02:31N 51°52' E 005°50'0 0.0
2017-Jan-13 01:33N 51°52' E 005°50'0 0.0
2017-Jan-13 00:33N 51°52' E 005°50'0 0.0
2017-Jan-12 23:33N 51°52' E 005°50'0 0.0
2017-Jan-12 22:33N 51°52' E 005°50'1 1.3
2017-Jan-12 21:33N 51°53' E 005°48'6 6.2
2017-Jan-12 20:32N 51°54' E 005°38'22 6.5
2017-Jan-12 17:10N 51°49' E 005°04'5 9.0
2017-Jan-12 16:34N 51°50' E 004°55'9 8.9
2017-Jan-12 15:33N 51°50' E 004°40'8 8.1
2017-Jan-12 14:33N 51°54' E 004°29'2 2.3
2017-Jan-12 13:33N 51°53' E 004°26'1 0.7
2017-Jan-12 12:33N 51°54' E 004°26'3 2.9
2017-Jan-12 11:33N 51°54' E 004°22'5 5.0
2017-Jan-12 10:33N 51°54' E 004°13'7 6.6
2017-Jan-12 09:34N 51°57' E 004°05'3 3.1
2017-Jan-12 08:34N 51°58' E 003°60'0 0.0
2017-Jan-12 07:33N 51°58' E 003°60'0 0.0
2017-Jan-12 06:33N 51°58' E 003°60'0 0.0
2017-Jan-12 05:33N 51°58' E 003°60'1 0.7
2017-Jan-12 04:34N 51°57' E 004°01'0 0.0
2017-Jan-12 03:33N 51°57' E 004°01'0 0.0
2017-Jan-12 02:33N 51°57' E 004°01'0 0.0
2017-Jan-12 01:33N 51°57' E 004°01'0 0.0
2017-Jan-12 00:34N 51°57' E 004°01'0 0.0
2017-Jan-11 23:33N 51°57' E 004°01'1 1.2
2017-Jan-11 22:33N 51°59' E 004°01'2 2.3
2017-Jan-11 21:33N 51°57' E 004°03'0 0.0
2017-Jan-11 20:33N 51°57' E 004°03'0 0.0
2017-Jan-11 19:33N 51°57' E 004°03'1 0.6
2017-Jan-11 18:33N 51°57' E 004°04'2 1.8
2017-Jan-11 17:33N 51°58' E 004°03'6 5.7
2017-Jan-11 16:33N 51°55' E 004°10'8 8.2
2017-Jan-11 15:33N 51°51' E 004°21'8 7.5
2017-Jan-11 14:33N 51°50' E 004°33'7 6.6
2017-Jan-11 13:33N 51°44' E 004°38'28 4.1
2017-Jan-11 06:33N 51°17' E 004°22'0 0.0
2017-Jan-11 05:33N 51°17' E 004°22'0 0.1
2017-Jan-11 04:33N 51°17' E 004°22'0 0.0
2017-Jan-11 03:33N 51°17' E 004°22'0 0.2
2017-Jan-11 02:33N 51°17' E 004°22'0 0.0
2017-Jan-11 01:33N 51°17' E 004°22'0 0.0
2017-Jan-11 00:33N 51°17' E 004°22'0 0.2
2017-Jan-10 23:33N 51°17' E 004°22'4 3.6
2017-Jan-10 22:32N 51°18' E 004°16'2 2.2
2017-Jan-10 21:33N 51°21' E 004°16'0 0.0
2017-Jan-10 20:33N 51°21' E 004°16'2 0.4
2017-Jan-10 16:16N 51°19' E 004°17'0 0.0
2017-Jan-10 15:33N 51°19' E 004°17'0 0.0
2017-Jan-10 14:33N 51°19' E 004°17'0 0.0
2017-Jan-10 13:32N 51°19' E 004°17'2 2.1
2017-Jan-10 12:31N 51°17' E 004°15'0 0.0
2017-Jan-10 11:33N 51°17' E 004°15'0 0.1
2017-Jan-10 10:33N 51°17' E 004°15'0 0.0
2017-Jan-10 09:33N 51°17' E 004°15'0 0.5
2017-Jan-10 08:33N 51°17' E 004°15'0 0.4
2017-Jan-10 07:33N 51°18' E 004°16'0 0.2
2017-Jan-10 06:33N 51°18' E 004°16'0 0.1
2017-Jan-10 05:33N 51°18' E 004°16'0 0.0
2017-Jan-10 04:33N 51°18' E 004°16'0 0.0
2017-Jan-10 03:33N 51°18' E 004°16'0 0.1
2017-Jan-10 02:33N 51°18' E 004°16'0 0.0
2017-Jan-10 01:33N 51°18' E 004°16'0 0.2
2017-Jan-10 00:31N 51°18' E 004°16'0 0.0
2017-Jan-09 23:33N 51°18' E 004°16'3 2.6
2017-Jan-09 22:33N 51°17' E 004°20'1 0.6
2017-Jan-09 21:33N 51°17' E 004°20'27 4.2
2017-Jan-09 15:17N 51°42' E 004°33'7 9.5
2017-Jan-09 14:33N 51°45' E 004°44'9 8.9
2017-Jan-09 13:33N 51°50' E 004°55'2 1.8
2017-Jan-09 12:33N 51°49' E 004°58'12 6.2
2017-Jan-09 10:33N 51°49' E 005°18'8 6.5
2017-Jan-09 09:19N 51°53' E 005°30'6 8.3
2017-Jan-09 08:33N 51°54' E 005°40'8 8.2
2017-Jan-09 07:33N 51°51' E 005°53'7 6.6
2017-Jan-09 06:34N 51°52' E 006°03'9 8.6
2017-Jan-09 05:33N 51°49' E 006°16'8 7.2
2017-Jan-09 04:26N 51°43' E 006°25'7 8.0
2017-Jan-09 03:33N 51°40' E 006°35'6 6.1
2017-Jan-09 02:31N 51°34' E 006°41'20 6.4
2017-Jan-08 23:24N 51°15' E 006°46'4 4.4
2017-Jan-08 22:33N 51°11' E 006°47'15 6.5
2017-Jan-08 20:12N 50°58' E 006°60'5 6.6
2017-Jan-08 19:29N 50°54' E 007°02'107 6.5
2017-Jan-08 03:04N 49°23' E 008°30'4 8.2
2017-Jan-08 02:33N 49°19' E 008°27'6 6.5
2017-Jan-08 01:33N 49°13' E 008°23'9 8.5
2017-Jan-08 00:33N 49°05' E 008°20'10 8.4
2017-Jan-07 23:25N 48°57' E 008°11'  

Dump ship's entire track history